createdAt,value
2019-01-25T00:09:35.096Z,20.77
2019-01-25T00:15:12.106Z,17.47
2019-01-25T00:17:40.471Z,17.13
2019-01-25T00:20:48.734Z,19.37
2019-01-25T00:32:55.279Z,20.07
2019-01-25T00:38:18.207Z,19.00
2019-01-25T00:43:41.709Z,17.80
2019-01-25T00:46:10.168Z,18.60
2019-01-25T00:51:46.317Z,17.80
2019-01-25T00:57:22.797Z,18.73
2019-01-25T00:59:51.015Z,19.57
2019-01-25T01:02:19.152Z,18.53
2019-01-25T01:04:46.927Z,17.77
2019-01-25T01:10:50.606Z,19.50
2019-01-25T01:13:58.767Z,17.30
2019-01-25T01:16:26.875Z,18.50
2019-01-25T01:18:54.635Z,19.33
2019-01-25T01:21:22.832Z,18.93
2019-01-25T01:23:50.886Z,18.73
2019-01-25T01:26:18.997Z,18.83
2019-01-25T01:28:47.517Z,20.13
2019-01-25T01:31:55.982Z,20.37
2019-01-25T01:41:07.438Z,19.73
2019-01-25T01:43:35.228Z,18.13
2019-01-25T01:49:11.702Z,21.87
2019-01-25T01:54:48.570Z,18.60
2019-01-25T01:57:57.002Z,20.13
2019-01-25T02:00:44.511Z,22.77
2019-01-25T02:03:12.272Z,22.97
2019-01-25T02:05:40.673Z,22.73
2019-01-25T02:08:09.258Z,24.30
2019-01-25T02:10:37.738Z,22.97
2019-01-25T02:13:05.608Z,25.50
2019-01-25T02:21:37.143Z,23.93
2019-01-25T02:24:45.276Z,24.00
2019-01-25T02:27:53.697Z,26.53
2019-01-25T02:33:58.010Z,24.50
2019-01-25T02:37:06.450Z,26.70
2019-01-25T02:39:34.611Z,22.97
2019-01-25T02:42:02.719Z,25.27
2019-01-25T02:44:31.220Z,25.43
2019-01-25T02:46:59.720Z,26.83
2019-01-25T02:52:22.563Z,26.10
2019-01-25T02:57:45.941Z,27.13
2019-01-25T03:00:55.798Z,25.20
2019-01-25T03:03:24.254Z,25.00
2019-01-25T03:05:52.738Z,26.10
2019-01-25T03:11:29.634Z,25.97
2019-01-25T03:17:06.814Z,26.17
2019-01-25T03:20:15.282Z,25.60
2019-01-25T03:26:18.906Z,23.40
2019-01-25T03:28:47.164Z,24.10
2019-01-25T03:31:15.384Z,27.83
2019-01-25T03:37:32.287Z,29.43
2019-01-25T03:43:48.796Z,28.07
2019-01-25T03:46:56.892Z,26.87
2019-01-25T03:49:25.010Z,28.50
2019-01-25T03:51:53.614Z,23.73
2019-01-25T03:58:10.798Z,27.03
2019-01-25T04:00:39.106Z,27.60
2019-01-25T04:03:07.271Z,29.97
2019-01-25T04:05:35.653Z,23.60
2019-01-25T04:08:44.167Z,26.23
2019-01-25T04:11:12.343Z,23.60
2019-01-25T04:13:40.209Z,24.30
2019-01-25T04:16:48.293Z,25.67
2019-01-25T04:19:16.495Z,24.93
2019-01-25T04:22:24.963Z,26.50
2019-01-25T04:24:53.163Z,25.20
2019-01-25T04:27:21.855Z,25.10
2019-01-25T04:32:45.095Z,27.03
2019-01-25T04:35:32.874Z,35.83
2019-01-25T04:38:01.087Z,28.90
2019-01-25T04:40:29.527Z,32.03
2019-01-25T04:42:57.603Z,28.80
2019-01-25T04:45:25.776Z,24.37
2019-01-25T04:47:54.213Z,21.10
2019-01-25T04:51:03.552Z,20.03
2019-01-25T04:54:11.705Z,22.17
2019-01-25T04:57:20.204Z,23.97
2019-01-25T05:00:28.668Z,22.63
2019-01-25T05:03:00.107Z,22.40
2019-01-25T05:06:08.346Z,23.50
2019-01-25T05:09:16.707Z,22.57
2019-01-25T05:12:24.549Z,24.23
2019-01-25T05:14:51.964Z,23.57
2019-01-25T05:18:00.482Z,23.50
2019-01-25T05:20:28.296Z,25.43
2019-01-25T05:26:33.767Z,24.67
2019-01-25T05:29:01.947Z,27.67
2019-01-25T05:32:10.478Z,28.27
2019-01-25T05:34:39.029Z,26.23
2019-01-25T05:37:47.695Z,28.37
2019-01-25T05:40:34.468Z,25.07
2019-01-25T05:43:42.670Z,25.90
2019-01-25T05:46:51.239Z,24.83
2019-01-25T05:49:59.729Z,25.80
2019-01-25T05:53:08.261Z,25.83
2019-01-25T05:56:16.329Z,24.57
2019-01-25T05:58:44.093Z,27.17
2019-01-25T06:01:12.181Z,29.03
2019-01-25T06:04:20.697Z,27.50
2019-01-25T06:07:28.795Z,27.40
2019-01-25T06:09:57.258Z,25.70
2019-01-25T06:13:05.398Z,26.73
2019-01-25T06:15:33.516Z,25.13
2019-01-25T06:18:42.374Z,27.20
2019-01-25T06:21:50.800Z,26.17
2019-01-25T06:24:18.490Z,29.80
2019-01-25T06:27:26.971Z,26.63
2019-01-25T06:30:35.069Z,25.93
2019-01-25T06:35:58.451Z,25.30
2019-01-25T06:41:21.458Z,23.00
2019-01-25T06:43:48.925Z,24.30
2019-01-25T06:46:17.057Z,23.67
2019-01-25T06:48:45.500Z,23.73
2019-01-25T06:51:13.657Z,26.73
2019-01-25T06:53:42.119Z,23.93
2019-01-25T06:56:10.027Z,26.97
2019-01-25T06:59:18.483Z,24.10
2019-01-25T07:02:06.109Z,25.80
2019-01-25T07:05:14.640Z,22.90
2019-01-25T07:10:52.018Z,21.53
2019-01-25T07:16:29.073Z,26.20
2019-01-25T07:18:56.862Z,26.00
2019-01-25T07:25:00.017Z,26.00
2019-01-25T07:30:22.953Z,25.30
2019-01-25T07:32:50.828Z,23.77
2019-01-25T07:35:19.155Z,25.97
2019-01-25T07:37:47.235Z,25.73
2019-01-25T07:43:11.328Z,27.23
2019-01-25T07:48:33.932Z,26.10
2019-01-25T07:51:02.407Z,28.93
2019-01-25T07:53:30.812Z,26.63
2019-01-25T07:56:39.454Z,24.07
2019-01-25T07:59:07.599Z,25.63
2019-01-25T08:02:16.181Z,22.93
2019-01-25T08:04:44.594Z,22.37
2019-01-25T08:07:53.066Z,22.10
2019-01-25T08:11:01.800Z,20.73
2019-01-25T08:16:27.626Z,25.53
2019-01-25T08:22:02.605Z,23.70
2019-01-25T08:33:12.472Z,21.90
2019-01-25T08:35:40.677Z,24.97
2019-01-25T08:38:08.824Z,26.00
2019-01-25T08:40:36.950Z,26.30
2019-01-25T08:43:05.418Z,24.10
2019-01-25T08:46:13.930Z,24.93
2019-01-25T08:48:42.537Z,20.83
2019-01-25T08:51:10.377Z,22.17
2019-01-25T08:53:38.560Z,24.03
2019-01-25T08:59:15.717Z,21.03
2019-01-25T09:02:24.195Z,20.90
2019-01-25T09:04:52.629Z,21.63
2019-01-25T09:07:20.400Z,21.37
2019-01-25T09:12:44.210Z,21.10
2019-01-25T09:15:54.061Z,22.20
2019-01-25T09:18:22.488Z,21.87
2019-01-25T09:20:50.546Z,21.03
2019-01-25T09:26:27.122Z,20.83
2019-01-25T09:28:55.245Z,19.17
2019-01-25T09:34:58.829Z,16.73
2019-01-25T09:41:02.913Z,16.53
2019-01-25T09:44:11.399Z,17.67
2019-01-25T09:53:10.716Z,20.60
2019-01-25T09:55:45.763Z,16.67
2019-01-25T09:58:15.394Z,17.87
2019-01-25T10:03:58.935Z,18.40
2019-01-25T10:09:22.196Z,18.90
2019-01-25T10:12:34.860Z,19.63
2019-01-25T10:15:00.024Z,19.23
2019-01-25T10:23:19.308Z,16.27
2019-01-25T10:28:56.562Z,16.83
2019-01-25T10:32:05.085Z,17.53
2019-01-25T10:35:13.189Z,17.70
2019-01-25T10:37:41.700Z,15.87
2019-01-25T10:40:51.627Z,27.10
2019-01-25T10:43:19.723Z,15.17
2019-01-25T10:48:56.231Z,19.97
2019-01-25T10:51:24.312Z,16.30
2019-01-25T10:54:32.450Z,19.10
2019-01-25T10:57:40.968Z,20.10
2019-01-25T11:00:51.396Z,16.20
2019-01-25T11:03:20.703Z,15.27
2019-01-25T11:05:49.050Z,16.53
2019-01-25T11:08:17.304Z,17.33
2019-01-25T11:10:45.500Z,16.50
2019-01-25T11:16:48.844Z,14.93
2019-01-25T11:19:56.938Z,16.63
2019-01-25T11:25:55.289Z,14.10
2019-01-25T11:28:23.830Z,13.07
2019-01-25T11:31:31.927Z,12.77
2019-01-25T11:34:00.164Z,14.63
2019-01-25T11:36:28.689Z,13.77
2019-01-25T11:38:57.110Z,15.13
2019-01-25T11:41:24.945Z,15.07
2019-01-25T11:43:53.128Z,14.90
2019-01-25T11:46:21.300Z,15.03
2019-01-25T11:48:49.899Z,15.60
2019-01-25T11:51:17.743Z,14.23
2019-01-25T11:53:46.175Z,12.37
2019-01-25T11:56:13.949Z,12.33
2019-01-25T11:58:42.093Z,12.27
2019-01-25T12:01:10.180Z,11.97
2019-01-25T12:03:38.684Z,12.17
2019-01-25T12:06:07.096Z,13.30
2019-01-25T12:08:35.636Z,14.47
2019-01-25T12:11:04.255Z,13.83
2019-01-25T12:13:32.745Z,14.60
2019-01-25T12:16:00.184Z,13.90
2019-01-25T12:18:28.770Z,14.07
2019-01-25T12:20:57.171Z,12.80
2019-01-25T12:23:24.932Z,12.27
2019-01-25T12:25:52.326Z,11.73
2019-01-25T12:28:20.514Z,12.03
2019-01-25T12:30:48.654Z,13.63
2019-01-25T12:33:17.292Z,12.63
2019-01-25T12:35:45.950Z,12.27
2019-01-25T12:38:13.697Z,11.47
2019-01-25T12:40:42.368Z,12.83
2019-01-25T12:43:51.239Z,11.03
2019-01-25T12:46:19.065Z,11.93
2019-01-25T12:48:46.894Z,12.20
2019-01-25T12:51:36.703Z,13.83
2019-01-25T12:54:45.226Z,14.33
2019-01-25T13:00:11.574Z,14.43
2019-01-25T13:03:20.083Z,15.53
2019-01-25T13:05:48.228Z,12.87
2019-01-25T13:08:56.348Z,14.57
2019-01-25T13:14:33.319Z,15.30
2019-01-25T13:17:01.895Z,14.97
2019-01-25T13:20:10.004Z,12.83
2019-01-25T13:22:38.464Z,14.20
2019-01-25T13:25:06.246Z,11.63
2019-01-25T13:27:33.978Z,11.07
2019-01-25T13:30:02.493Z,13.87
2019-01-25T13:32:31.303Z,12.67
2019-01-25T13:34:59.575Z,14.07
2019-01-25T13:37:31.472Z,14.37
2019-01-25T13:39:58.170Z,13.07
2019-01-25T13:43:06.255Z,13.37
2019-01-25T13:45:33.637Z,12.23
2019-01-25T13:48:02.197Z,13.60
2019-01-25T13:50:30.706Z,13.30
2019-01-25T13:52:59.285Z,14.47
2019-01-25T13:55:27.560Z,14.20
2019-01-25T13:57:54.935Z,15.77
2019-01-25T14:00:42.471Z,15.63
2019-01-25T14:03:10.259Z,12.87
2019-01-25T14:05:38.815Z,12.53
2019-01-25T14:08:07.244Z,13.60
2019-01-25T14:10:35.860Z,14.90
2019-01-25T14:13:46.944Z,13.83
2019-01-25T14:16:14.519Z,15.27
2019-01-25T14:18:44.842Z,12.93
2019-01-25T14:27:04.551Z,13.13
2019-01-25T14:29:32.514Z,13.47
2019-01-25T14:32:40.637Z,13.63
2019-01-25T14:35:08.483Z,18.90
2019-01-25T14:38:17.029Z,16.13
2019-01-25T14:40:45.566Z,12.93
2019-01-25T14:43:13.721Z,11.73
2019-01-25T14:45:41.939Z,10.87
2019-01-25T14:51:18.820Z,12.80
2019-01-25T14:53:50.942Z,11.00
2019-01-25T14:56:16.969Z,11.93
2019-01-25T14:59:24.781Z,12.57
2019-01-25T15:01:53.195Z,13.07
2019-01-25T15:05:01.639Z,12.90
2019-01-25T15:07:30.064Z,11.10
2019-01-25T15:09:58.751Z,10.40
2019-01-25T15:12:27.285Z,11.40
2019-01-25T15:14:55.125Z,11.67
2019-01-25T15:17:23.263Z,11.73
2019-01-25T15:19:50.660Z,11.17
2019-01-25T15:22:18.919Z,11.50
2019-01-25T15:27:55.599Z,9.80
2019-01-25T15:31:05.125Z,11.13
2019-01-25T15:34:13.670Z,10.67
2019-01-25T15:36:42.090Z,11.37
2019-01-25T15:39:50.900Z,12.43
2019-01-25T15:42:59.447Z,13.07
2019-01-25T15:46:07.540Z,11.37
2019-01-25T15:48:35.734Z,8.87
2019-01-25T15:51:44.198Z,10.23
2019-01-25T15:54:12.698Z,9.07
2019-01-25T15:56:40.482Z,10.60
2019-01-25T15:59:08.345Z,11.47
2019-01-25T16:01:36.096Z,9.77
2019-01-25T16:04:44.669Z,9.97
2019-01-25T16:07:13.201Z,12.63
2019-01-25T16:09:41.484Z,11.37
2019-01-25T16:12:09.242Z,10.80
2019-01-25T16:14:37.010Z,9.93
2019-01-25T16:17:04.791Z,9.97
2019-01-25T16:19:32.933Z,11.00
2019-01-25T16:22:41.026Z,11.10
2019-01-25T16:28:06.612Z,11.00
2019-01-25T16:31:16.385Z,11.47
2019-01-25T16:33:45.030Z,11.27
2019-01-25T16:39:09.405Z,11.13
2019-01-25T16:41:37.464Z,11.23
2019-01-25T16:44:46.059Z,12.27
2019-01-25T16:47:14.506Z,9.30
2019-01-25T16:49:42.755Z,10.07
2019-01-25T16:52:51.256Z,10.47
2019-01-25T16:55:59.778Z,9.67
2019-01-25T16:58:27.545Z,9.57
2019-01-25T17:00:55.519Z,10.30
2019-01-25T17:03:24.047Z,10.57
2019-01-25T17:05:52.234Z,10.57
2019-01-25T17:08:20.329Z,11.33
2019-01-25T17:10:48.614Z,10.97
2019-01-25T17:13:16.040Z,10.13
2019-01-25T17:15:43.854Z,9.77
2019-01-25T17:18:12.028Z,9.80
2019-01-25T17:20:40.439Z,9.80
2019-01-25T17:25:43.472Z,10.03
2019-01-25T17:28:52.259Z,10.00
2019-01-25T17:32:00.772Z,8.17
2019-01-25T17:37:38.029Z,8.50
2019-01-25T17:40:29.607Z,8.67
2019-01-25T17:42:57.914Z,7.40
2019-01-25T17:45:26.234Z,7.37
2019-01-25T17:48:34.752Z,7.93
2019-01-25T17:51:02.831Z,6.20
2019-01-25T17:53:29.976Z,6.23
2019-01-25T17:55:58.441Z,7.07
2019-01-25T17:58:26.776Z,7.63
2019-01-25T18:00:55.729Z,6.93
2019-01-25T18:03:43.015Z,5.80
2019-01-25T18:06:50.821Z,7.70
2019-01-25T18:09:19.098Z,7.20
2019-01-25T18:11:47.889Z,7.33
2019-01-25T18:17:10.145Z,5.77
2019-01-25T18:19:37.937Z,6.70
2019-01-25T18:22:46.485Z,6.10
2019-01-25T18:25:56.021Z,7.07
2019-01-25T18:29:05.929Z,6.60
2019-01-25T18:34:42.932Z,6.90
2019-01-25T18:37:51.538Z,6.70
2019-01-25T18:40:59.706Z,7.47
2019-01-25T18:46:23.216Z,8.57
2019-01-25T18:49:31.704Z,7.77
2019-01-25T18:52:00.125Z,6.90
2019-01-25T18:54:28.701Z,5.87
2019-01-25T18:56:56.891Z,6.67
2019-01-25T18:59:24.438Z,7.10
2019-01-25T19:01:52.872Z,6.67
2019-01-25T19:04:21.016Z,7.00
2019-01-25T19:07:29.143Z,5.23
2019-01-25T19:10:37.732Z,5.97
2019-01-25T19:16:15.284Z,6.27
2019-01-25T19:18:43.773Z,6.77
2019-01-25T19:27:00.701Z,5.77
2019-01-25T19:29:28.882Z,6.20
2019-01-25T19:31:56.306Z,6.17
2019-01-25T19:34:25.019Z,6.73
2019-01-25T19:36:53.185Z,6.93
2019-01-25T19:39:21.029Z,7.07
2019-01-25T19:41:49.571Z,9.10
2019-01-25T19:44:18.074Z,9.60
2019-01-25T19:46:46.241Z,9.10
2019-01-25T19:49:14.719Z,9.03
2019-01-25T19:51:43.019Z,9.80
2019-01-25T19:54:11.509Z,10.10
2019-01-25T19:56:39.739Z,9.63
2019-01-25T19:59:08.318Z,9.93
2019-01-25T20:01:36.441Z,8.97
2019-01-25T20:04:45.163Z,9.27
2019-01-25T20:07:12.966Z,9.60
2019-01-25T20:10:21.324Z,10.20
2019-01-25T20:13:01.699Z,10.53
2019-01-25T20:15:29.931Z,12.17
2019-01-25T20:20:53.025Z,11.70
2019-01-25T20:26:29.559Z,10.80
2019-01-25T20:34:26.991Z,11.47
2019-01-25T20:37:35.487Z,12.07
2019-01-25T20:42:58.255Z,10.30
2019-01-25T20:45:28.011Z,11.47
2019-01-25T20:47:55.475Z,10.93
2019-01-25T20:50:25.568Z,11.73
2019-01-25T20:52:53.744Z,11.27
2019-01-25T20:55:21.901Z,11.17
2019-01-25T20:57:50.349Z,11.27
2019-01-25T21:00:23.166Z,11.20
2019-01-25T21:02:51.392Z,10.23
2019-01-25T21:05:19.746Z,9.93
2019-01-25T21:07:48.258Z,10.67
2019-01-25T21:10:18.076Z,10.03
2019-01-25T21:12:46.581Z,10.87
2019-01-25T21:15:55.419Z,10.30
2019-01-25T21:18:24.027Z,10.60
2019-01-25T21:24:27.774Z,10.83
2019-01-25T21:26:55.639Z,10.97
2019-01-25T21:30:03.807Z,10.60
2019-01-25T21:32:32.363Z,10.17
2019-01-25T21:35:00.267Z,11.33
2019-01-25T21:37:28.830Z,10.93
2019-01-25T21:39:56.726Z,11.13
2019-01-25T21:42:24.913Z,10.77
2019-01-25T21:44:53.091Z,10.60
2019-01-25T21:49:55.478Z,8.83
2019-01-25T21:52:23.716Z,9.00
2019-01-25T21:54:52.374Z,9.40
2019-01-25T21:57:20.647Z,9.60
2019-01-25T21:59:49.053Z,9.03
2019-01-25T22:02:17.194Z,9.83
2019-01-25T22:04:45.031Z,9.70
2019-01-25T22:07:13.655Z,9.27
2019-01-25T22:09:42.158Z,8.50
2019-01-25T22:12:10.625Z,7.17
2019-01-25T22:14:39.235Z,8.20
2019-01-25T22:17:07.411Z,7.87
2019-01-25T22:19:35.924Z,8.20
2019-01-25T22:22:44.361Z,7.63
2019-01-25T22:25:12.767Z,7.73
2019-01-25T22:27:40.894Z,9.13
2019-01-25T22:30:11.601Z,8.77
2019-01-25T22:32:39.665Z,7.47
2019-01-25T22:35:08.034Z,7.97
2019-01-25T22:37:36.529Z,8.47
2019-01-25T22:40:44.939Z,7.53
2019-01-25T22:43:12.821Z,13.60
2019-01-25T22:45:42.082Z,10.13
2019-01-25T22:48:10.706Z,9.07
2019-01-25T22:50:38.542Z,8.10
2019-01-25T22:53:46.769Z,8.60
2019-01-25T22:59:09.123Z,7.63
2019-01-25T23:01:37.291Z,7.93
2019-01-25T23:04:43.805Z,6.73
2019-01-25T23:07:53.363Z,7.50
2019-01-25T23:11:02.103Z,7.80
2019-01-25T23:13:29.931Z,8.53
2019-01-25T23:15:58.018Z,8.67
2019-01-25T23:18:26.382Z,7.93
2019-01-25T23:20:54.515Z,9.13
2019-01-25T23:23:22.916Z,8.87
2019-01-25T23:25:50.746Z,8.13
2019-01-25T23:28:18.652Z,9.67
2019-01-25T23:30:47.217Z,9.07
2019-01-25T23:33:15.615Z,8.80
2019-01-25T23:35:44.067Z,9.27
2019-01-25T23:41:07.473Z,9.83
2019-01-25T23:43:35.682Z,9.30
2019-01-25T23:49:12.206Z,9.97
2019-01-25T23:54:48.672Z,9.00
2019-01-25T23:57:16.974Z,9.50
2019-01-25T23:59:44.810Z,9.67
